sensor_id;sensor_type;location;lat;lon;timestamp;temperature;humidity
42145;DHT22;27813;43.516;11.890;2023-04-06T04:33:22;-3275.90;71.90
42145;DHT22;27813;43.516;11.890;2023-04-06T04:37:31;-3276.10;72.00
42145;DHT22;27813;43.516;11.890;2023-04-06T04:41:36;-3276.00;72.00
42145;DHT22;27813;43.516;11.890;2023-04-06T04:45:44;-3275.90;71.60
42145;DHT22;27813;43.516;11.890;2023-04-06T04:50:00;-3275.70;71.70
42145;DHT22;27813;43.516;11.890;2023-04-06T04:54:05;-3275.60;72.40
42145;DHT22;27813;43.516;11.890;2023-04-06T04:58:10;-3275.70;72.60
42145;DHT22;27813;43.516;11.890;2023-04-06T05:02:24;-3275.70;72.60
42145;DHT22;27813;43.516;11.890;2023-04-06T05:06:45;-3275.80;72.40
42145;DHT22;27813;43.516;11.890;2023-04-06T05:10:50;-3275.90;72.60
42145;DHT22;27813;43.516;11.890;2023-04-06T05:14:56;-3276.30;72.40
42145;DHT22;27813;43.516;11.890;2023-04-06T05:19:00;-3276.50;71.50
42145;DHT22;27813;43.516;11.890;2023-04-06T05:23:14;-3276.50;71.30
42145;DHT22;27813;43.516;11.890;2023-04-06T05:27:19;-3276.60;71.30
42145;DHT22;27813;43.516;11.890;2023-04-06T05:31:24;-3276.60;71.10
42145;DHT22;27813;43.516;11.890;2023-04-06T05:35:28;0.60;71.00
42145;DHT22;27813;43.516;11.890;2023-04-06T05:39:38;2.00;67.50
42145;DHT22;27813;43.516;11.890;2023-04-06T05:43:42;3.20;64.20
42145;DHT22;27813;43.516;11.890;2023-04-06T05:47:47;4.00;62.00
42145;DHT22;27813;43.516;11.890;2023-04-06T05:51:58;4.70;60.50
42145;DHT22;27813;43.516;11.890;2023-04-06T05:56:03;5.30;59.30
42145;DHT22;27813;43.516;11.890;2023-04-06T06:00:08;5.80;58.40
42145;DHT22;27813;43.516;11.890;2023-04-06T06:04:26;6.40;57.50
42145;DHT22;27813;43.516;11.890;2023-04-06T06:08:31;7.00;56.60
42145;DHT22;27813;43.516;11.890;2023-04-06T06:12:39;7.70;55.80
42145;DHT22;27813;43.516;11.890;2023-04-06T06:26:39;9.30;53.20
42145;DHT22;27813;43.516;11.890;2023-04-06T06:30:45;9.70;52.60
42145;DHT22;27813;43.516;11.890;2023-04-06T06:34:59;10.00;52.10
42145;DHT22;27813;43.516;11.890;2023-04-06T06:39:04;10.40;51.30
42145;DHT22;27813;43.516;11.890;2023-04-06T06:43:11;10.10;50.90
42145;DHT22;27813;43.516;11.890;2023-04-06T06:47:41;8.70;53.50
42145;DHT22;27813;43.516;11.890;2023-04-06T06:51:47;7.40;56.50
42145;DHT22;27813;43.516;11.890;2023-04-06T06:55:51;6.60;58.50
42145;DHT22;27813;43.516;11.890;2023-04-06T06:59:59;6.00;60.00
42145;DHT22;27813;43.516;11.890;2023-04-06T07:04:05;5.70;61.00
42145;DHT22;27813;43.516;11.890;2023-04-06T07:08:11;5.50;61.50
42145;DHT22;27813;43.516;11.890;2023-04-06T07:12:17;5.40;61.90
42145;DHT22;27813;43.516;11.890;2023-04-06T07:16:22;5.30;62.20
42145;DHT22;27813;43.516;11.890;2023-04-06T07:20:26;5.30;62.40
42145;DHT22;27813;43.516;11.890;2023-04-06T07:24:32;5.40;62.50
42145;DHT22;27813;43.516;11.890;2023-04-06T07:28:36;5.40;62.60
42145;DHT22;27813;43.516;11.890;2023-04-06T07:32:41;5.60;62.50
42145;DHT22;27813;43.516;11.890;2023-04-06T07:36:46;5.70;62.40
42145;DHT22;27813;43.516;11.890;2023-04-06T07:40:51;5.80;62.30
42145;DHT22;27813;43.516;11.890;2023-04-06T07:44:56;5.90;62.20
42145;DHT22;27813;43.516;11.890;2023-04-06T07:49:01;6.00;61.90
42145;DHT22;27813;43.516;11.890;2023-04-06T07:53:09;6.20;61.70
42145;DHT22;27813;43.516;11.890;2023-04-06T07:57:14;6.30;61.50
42145;DHT22;27813;43.516;11.890;2023-04-06T08:01:19;6.40;61.20
42145;DHT22;27813;43.516;11.890;2023-04-06T08:05:23;6.60;60.80
42145;DHT22;27813;43.516;11.890;2023-04-06T08:09:28;6.80;60.20
42145;DHT22;27813;43.516;11.890;2023-04-06T08:13:33;7.00;59.70
42145;DHT22;27813;43.516;11.890;2023-04-06T08:17:37;7.20;58.90
42145;DHT22;27813;43.516;11.890;2023-04-06T08:21:42;7.40;58.00
42145;DHT22;27813;43.516;11.890;2023-04-06T08:25:46;7.60;57.40
42145;DHT22;27813;43.516;11.890;2023-04-06T08:29:51;7.80;56.90
42145;DHT22;27813;43.516;11.890;2023-04-06T08:33:57;7.90;57.00
42145;DHT22;27813;43.516;11.890;2023-04-06T08:38:03;8.00;56.40
42145;DHT22;27813;43.516;11.890;2023-04-06T08:42:13;8.10;56.20
42145;DHT22;27813;43.516;11.890;2023-04-06T08:46:21;8.20;56.10
42145;DHT22;27813;43.516;11.890;2023-04-06T08:50:26;8.30;56.10
42145;DHT22;27813;43.516;11.890;2023-04-06T08:54:31;8.40;55.90
42145;DHT22;27813;43.516;11.890;2023-04-06T08:58:38;8.50;55.50
42145;DHT22;27813;43.516;11.890;2023-04-06T09:02:45;8.60;55.00
42145;DHT22;27813;43.516;11.890;2023-04-06T09:06:50;8.80;54.80
42145;DHT22;27813;43.516;11.890;2023-04-06T09:10:54;8.90;54.60
42145;DHT22;27813;43.516;11.890;2023-04-06T09:15:00;9.00;54.70
42145;DHT22;27813;43.516;11.890;2023-04-06T09:19:04;9.10;54.70
42145;DHT22;27813;43.516;11.890;2023-04-06T09:23:18;9.20;54.60
42145;DHT22;27813;43.516;11.890;2023-04-06T09:27:32;9.30;54.10
42145;DHT22;27813;43.516;11.890;2023-04-06T09:31:37;9.40;54.00
42145;DHT22;27813;43.516;11.890;2023-04-06T09:35:49;9.40;54.00
42145;DHT22;27813;43.516;11.890;2023-04-06T09:40:03;9.50;53.30
42145;DHT22;27813;43.516;11.890;2023-04-06T09:44:12;9.50;53.50
42145;DHT22;27813;43.516;11.890;2023-04-06T09:48:19;9.50;53.40
42145;DHT22;27813;43.516;11.890;2023-04-06T09:52:35;9.60;52.50
42145;DHT22;27813;43.516;11.890;2023-04-06T09:56:47;9.70;52.70
42145;DHT22;27813;43.516;11.890;2023-04-06T10:01:13;9.80;52.40
42145;DHT22;27813;43.516;11.890;2023-04-06T10:05:42;9.90;52.30
42145;DHT22;27813;43.516;11.890;2023-04-06T10:09:48;10.20;52.00
42145;DHT22;27813;43.516;11.890;2023-04-06T10:13:55;10.40;51.80
42145;DHT22;27813;43.516;11.890;2023-04-06T10:18:00;10.50;51.40
42145;DHT22;27813;43.516;11.890;2023-04-06T10:22:08;10.70;51.30
42145;DHT22;27813;43.516;11.890;2023-04-06T10:26:19;11.00;50.40
42145;DHT22;27813;43.516;11.890;2023-04-06T10:30:24;11.10;50.20
42145;DHT22;27813;43.516;11.890;2023-04-06T10:34:35;11.20;50.10
42145;DHT22;27813;43.516;11.890;2023-04-06T10:38:42;11.40;49.90
42145;DHT22;27813;43.516;11.890;2023-04-06T10:42:46;11.60;48.80
42145;DHT22;27813;43.516;11.890;2023-04-06T10:46:59;11.90;48.30
42145;DHT22;27813;43.516;11.890;2023-04-06T10:51:15;12.20;47.70
42145;DHT22;27813;43.516;11.890;2023-04-06T10:55:19;12.40;46.50
42145;DHT22;27813;43.516;11.890;2023-04-06T10:59:25;12.50;46.50
42145;DHT22;27813;43.516;11.890;2023-04-06T11:03:58;12.70;46.50
42145;DHT22;27813;43.516;11.890;2023-04-06T11:08:03;13.00;46.10
42145;DHT22;27813;43.516;11.890;2023-04-06T11:12:07;13.30;45.50
42145;DHT22;27813;43.516;11.890;2023-04-06T11:16:21;13.70;45.80
42145;DHT22;27813;43.516;11.890;2023-04-06T11:20:25;14.20;45.40
42145;DHT22;27813;43.516;11.890;2023-04-06T11:24:30;14.40;45.10
42145;DHT22;27813;43.516;11.890;2023-04-06T11:28:36;14.70;45.20
42145;DHT22;27813;43.516;11.890;2023-04-06T11:37:43;15.20;43.60
42145;DHT22;27813;43.516;11.890;2023-04-06T11:41:50;15.30;43.50
42145;DHT22;27813;43.516;11.890;2023-04-06T11:46:00;15.50;43.70
42145;DHT22;27813;43.516;11.890;2023-04-06T11:50:11;15.70;43.60
42145;DHT22;27813;43.516;11.890;2023-04-06T11:54:16;15.90;43.40
42145;DHT22;27813;43.516;11.890;2023-04-06T11:58:21;16.10;43.50
42145;DHT22;27813;43.516;11.890;2023-04-06T12:02:26;16.40;43.40
42145;DHT22;27813;43.516;11.890;2023-04-06T12:06:30;16.70;43.20
42145;DHT22;27813;43.516;11.890;2023-04-06T12:10:34;16.80;42.50
42145;DHT22;27813;43.516;11.890;2023-04-06T12:14:39;16.40;40.80
42145;DHT22;27813;43.516;11.890;2023-04-06T12:18:43;16.00;41.30
42145;DHT22;27813;43.516;11.890;2023-04-06T12:22:48;15.80;42.10
42145;DHT22;27813;43.516;11.890;2023-04-06T12:26:53;15.70;42.40
42145;DHT22;27813;43.516;11.890;2023-04-06T12:31:16;15.60;42.40
42145;DHT22;27813;43.516;11.890;2023-04-06T12:35:21;15.40;42.50
42145;DHT22;27813;43.516;11.890;2023-04-06T12:45:55;15.30;43.20
42145;DHT22;27813;43.516;11.890;2023-04-06T12:50:00;15.60;43.20
42145;DHT22;27813;43.516;11.890;2023-04-06T12:54:04;15.70;42.80
42145;DHT22;27813;43.516;11.890;2023-04-06T12:58:11;16.00;42.70
42145;DHT22;27813;43.516;11.890;2023-04-06T13:02:18;16.10;42.40
42145;DHT22;27813;43.516;11.890;2023-04-06T13:06:25;16.10;42.30
42145;DHT22;27813;43.516;11.890;2023-04-06T13:10:33;16.10;42.30
42145;DHT22;27813;43.516;11.890;2023-04-06T13:14:37;16.10;42.50
42145;DHT22;27813;43.516;11.890;2023-04-06T13:18:43;16.00;42.50
42145;DHT22;27813;43.516;11.890;2023-04-06T13:22:47;16.20;42.70
42145;DHT22;27813;43.516;11.890;2023-04-06T13:26:51;16.50;42.60
42145;DHT22;27813;43.516;11.890;2023-04-06T13:31:02;16.60;42.50
42145;DHT22;27813;43.516;11.890;2023-04-06T13:35:06;16.90;42.40
42145;DHT22;27813;43.516;11.890;2023-04-06T13:39:11;17.00;42.20
42145;DHT22;27813;43.516;11.890;2023-04-06T13:43:15;17.20;42.00
42145;DHT22;27813;43.516;11.890;2023-04-06T13:47:23;17.50;41.60
42145;DHT22;27813;43.516;11.890;2023-04-06T13:51:27;17.80;40.90
42145;DHT22;27813;43.516;11.890;2023-04-06T13:55:32;17.70;40.40
42145;DHT22;27813;43.516;11.890;2023-04-06T13:59:37;17.50;40.30
42145;DHT22;27813;43.516;11.890;2023-04-06T14:03:41;17.10;40.60
42145;DHT22;27813;43.516;11.890;2023-04-06T14:07:48;16.60;41.00
42145;DHT22;27813;43.516;11.890;2023-04-06T14:11:52;16.20;41.50
42145;DHT22;27813;43.516;11.890;2023-04-06T14:15:57;15.80;41.90
42145;DHT22;27813;43.516;11.890;2023-04-06T14:20:01;15.50;42.30
42145;DHT22;27813;43.516;11.890;2023-04-06T14:24:07;15.40;42.70
42145;DHT22;27813;43.516;11.890;2023-04-06T14:28:13;15.50;42.80
42145;DHT22;27813;43.516;11.890;2023-04-06T14:32:20;15.40;42.20
42145;DHT22;27813;43.516;11.890;2023-04-06T14:36:24;15.10;42.00
42145;DHT22;27813;43.516;11.890;2023-04-06T14:40:35;14.80;42.10
42145;DHT22;27813;43.516;11.890;2023-04-06T14:44:42;14.50;42.30
42145;DHT22;27813;43.516;11.890;2023-04-06T14:48:48;14.20;42.40
42145;DHT22;27813;43.516;11.890;2023-04-06T14:52:53;14.10;42.90
42145;DHT22;27813;43.516;11.890;2023-04-06T14:56:58;14.00;43.20
42145;DHT22;27813;43.516;11.890;2023-04-06T15:01:04;13.90;43.40
42145;DHT22;27813;43.516;11.890;2023-04-06T15:05:10;13.80;43.30
42145;DHT22;27813;43.516;11.890;2023-04-06T15:09:15;13.70;43.20
42145;DHT22;27813;43.516;11.890;2023-04-06T15:13:20;13.70;43.40
42145;DHT22;27813;43.516;11.890;2023-04-06T15:17:24;13.90;43.40
42145;DHT22;27813;43.516;11.890;2023-04-06T15:21:31;14.00;43.30
42145;DHT22;27813;43.516;11.890;2023-04-06T15:25:36;14.20;43.20
42145;DHT22;27813;43.516;11.890;2023-04-06T15:29:44;14.30;43.00
42145;DHT22;27813;43.516;11.890;2023-04-06T15:33:49;14.40;42.70
42145;DHT22;27813;43.516;11.890;2023-04-06T15:37:54;14.30;42.60
42145;DHT22;27813;43.516;11.890;2023-04-06T15:41:59;14.10;42.70
42145;DHT22;27813;43.516;11.890;2023-04-06T15:46:04;14.00;42.80
42145;DHT22;27813;43.516;11.890;2023-04-06T15:50:11;13.90;43.00
42145;DHT22;27813;43.516;11.890;2023-04-06T15:54:16;13.70;43.20
42145;DHT22;27813;43.516;11.890;2023-04-06T15:58:24;13.60;43.40
42145;DHT22;27813;43.516;11.890;2023-04-06T16:02:29;13.50;43.80
42145;DHT22;27813;43.516;11.890;2023-04-06T16:06:34;13.40;44.00
42145;DHT22;27813;43.516;11.890;2023-04-06T16:10:39;13.50;44.20
42145;DHT22;27813;43.516;11.890;2023-04-06T16:14:44;13.50;44.40
42145;DHT22;27813;43.516;11.890;2023-04-06T16:18:49;13.70;44.30
42145;DHT22;27813;43.516;11.890;2023-04-06T16:22:53;13.80;44.20
42145;DHT22;27813;43.516;11.890;2023-04-06T16:26:57;13.80;44.10
42145;DHT22;27813;43.516;11.890;2023-04-06T16:31:01;13.70;44.30
42145;DHT22;27813;43.516;11.890;2023-04-06T16:35:07;13.60;44.20
42145;DHT22;27813;43.516;11.890;2023-04-06T16:39:12;13.50;44.30
42145;DHT22;27813;43.516;11.890;2023-04-06T16:43:16;13.40;44.40
42145;DHT22;27813;43.516;11.890;2023-04-06T16:47:20;13.20;44.50
42145;DHT22;27813;43.516;11.890;2023-04-06T16:51:27;13.10;44.60
42145;DHT22;27813;43.516;11.890;2023-04-06T16:55:31;13.00;44.80
42145;DHT22;27813;43.516;11.890;2023-04-06T16:59:36;12.80;44.90
42145;DHT22;27813;43.516;11.890;2023-04-06T17:03:43;12.70;45.10
42145;DHT22;27813;43.516;11.890;2023-04-06T17:07:48;12.70;45.10
42145;DHT22;27813;43.516;11.890;2023-04-06T17:11:53;12.50;45.20
42145;DHT22;27813;43.516;11.890;2023-04-06T17:15:59;12.40;45.30
42145;DHT22;27813;43.516;11.890;2023-04-06T17:20:05;12.20;45.40
42145;DHT22;27813;43.516;11.890;2023-04-06T17:24:10;12.00;45.50
42145;DHT22;27813;43.516;11.890;2023-04-06T17:28:15;11.70;45.70
42145;DHT22;27813;43.516;11.890;2023-04-06T17:32:22;11.40;45.80
42145;DHT22;27813;43.516;11.890;2023-04-06T17:36:31;11.20;45.80
42145;DHT22;27813;43.516;11.890;2023-04-06T17:40:35;10.90;45.80
42145;DHT22;27813;43.516;11.890;2023-04-06T17:44:40;10.60;46.00
42145;DHT22;27813;43.516;11.890;2023-04-06T17:48:45;10.20;46.50
42145;DHT22;27813;43.516;11.890;2023-04-06T17:52:50;9.90;47.00
42145;DHT22;27813;43.516;11.890;2023-04-06T17:56:54;9.50;47.40
42145;DHT22;27813;43.516;11.890;2023-04-06T18:01:05;9.20;48.00
42145;DHT22;27813;43.516;11.890;2023-04-06T18:05:11;9.00;48.30
42145;DHT22;27813;43.516;11.890;2023-04-06T18:09:15;8.90;48.40
42145;DHT22;27813;43.516;11.890;2023-04-06T18:13:20;8.70;48.50
42145;DHT22;27813;43.516;11.890;2023-04-06T18:17:25;8.40;48.90
42145;DHT22;27813;43.516;11.890;2023-04-06T18:21:31;8.10;49.30
42145;DHT22;27813;43.516;11.890;2023-04-06T18:25:39;7.90;49.70
42145;DHT22;27813;43.516;11.890;2023-04-06T18:29:44;7.60;50.20
42145;DHT22;27813;43.516;11.890;2023-04-06T18:33:50;7.30;50.70
42145;DHT22;27813;43.516;11.890;2023-04-06T18:37:56;7.20;51.20
42145;DHT22;27813;43.516;11.890;2023-04-06T18:42:01;7.20;51.30
42145;DHT22;27813;43.516;11.890;2023-04-06T18:46:13;7.20;51.10
42145;DHT22;27813;43.516;11.890;2023-04-06T18:50:18;7.20;51.10
42145;DHT22;27813;43.516;11.890;2023-04-06T18:54:25;7.00;51.50
42145;DHT22;27813;43.516;11.890;2023-04-06T18:58:31;6.90;51.70
42145;DHT22;27813;43.516;11.890;2023-04-06T19:02:35;6.90;51.90
42145;DHT22;27813;43.516;11.890;2023-04-06T19:06:41;6.80;52.10
42145;DHT22;27813;43.516;11.890;2023-04-06T19:10:46;6.70;52.50
42145;DHT22;27813;43.516;11.890;2023-04-06T19:14:52;6.50;52.90
42145;DHT22;27813;43.516;11.890;2023-04-06T19:18:57;6.40;53.10
42145;DHT22;27813;43.516;11.890;2023-04-06T19:23:02;6.30;53.30
42145;DHT22;27813;43.516;11.890;2023-04-06T19:27:07;6.20;53.40
42145;DHT22;27813;43.516;11.890;2023-04-06T19:31:14;6.10;53.70
42145;DHT22;27813;43.516;11.890;2023-04-06T19:35:20;5.90;54.10
42145;DHT22;27813;43.516;11.890;2023-04-06T19:39:24;5.70;54.60
42145;DHT22;27813;43.516;11.890;2023-04-06T19:43:29;5.50;55.50
42145;DHT22;27813;43.516;11.890;2023-04-06T19:47:34;5.30;55.80
42145;DHT22;27813;43.516;11.890;2023-04-06T19:51:38;5.10;56.20
42145;DHT22;27813;43.516;11.890;2023-04-06T19:55:42;4.90;57.00
42145;DHT22;27813;43.516;11.890;2023-04-06T19:59:47;4.90;57.30
42145;DHT22;27813;43.516;11.890;2023-04-06T20:03:52;5.00;57.40
42145;DHT22;27813;43.516;11.890;2023-04-06T20:07:57;5.00;57.40
42145;DHT22;27813;43.516;11.890;2023-04-06T20:12:01;4.90;57.50
42145;DHT22;27813;43.516;11.890;2023-04-06T20:16:06;4.70;57.50
42145;DHT22;27813;43.516;11.890;2023-04-06T20:20:11;4.40;57.80
42145;DHT22;27813;43.516;11.890;2023-04-06T20:24:15;4.20;58.30
42145;DHT22;27813;43.516;11.890;2023-04-06T20:28:21;3.90;58.70
42145;DHT22;27813;43.516;11.890;2023-04-06T20:32:31;3.70;59.00
42145;DHT22;27813;43.516;11.890;2023-04-06T20:36:36;3.40;59.50
42145;DHT22;27813;43.516;11.890;2023-04-06T20:40:44;3.10;60.40
42145;DHT22;27813;43.516;11.890;2023-04-06T20:44:50;3.00;60.80
42145;DHT22;27813;43.516;11.890;2023-04-06T20:48:54;2.80;60.80
42145;DHT22;27813;43.516;11.890;2023-04-06T20:52:59;2.70;61.40
42145;DHT22;27813;43.516;11.890;2023-04-06T20:57:04;2.60;61.40
42145;DHT22;27813;43.516;11.890;2023-04-06T21:01:15;2.40;61.60
42145;DHT22;27813;43.516;11.890;2023-04-06T21:05:20;2.30;62.50
42145;DHT22;27813;43.516;11.890;2023-04-06T21:09:24;2.30;62.50
42145;DHT22;27813;43.516;11.890;2023-04-06T21:13:31;2.20;62.50
42145;DHT22;27813;43.516;11.890;2023-04-06T21:17:36;2.00;62.60
42145;DHT22;27813;43.516;11.890;2023-04-06T21:21:40;1.90;62.90
42145;DHT22;27813;43.516;11.890;2023-04-06T21:25:45;1.80;63.90
42145;DHT22;27813;43.516;11.890;2023-04-06T21:29:49;1.80;63.70
42145;DHT22;27813;43.516;11.890;2023-04-06T21:33:54;1.70;63.80
42145;DHT22;27813;43.516;11.890;2023-04-06T21:37:58;1.70;64.00
42145;DHT22;27813;43.516;11.890;2023-04-06T21:42:03;1.60;63.80
42145;DHT22;27813;43.516;11.890;2023-04-06T21:46:08;1.50;64.10
42145;DHT22;27813;43.516;11.890;2023-04-06T21:50:13;1.40;64.50
42145;DHT22;27813;43.516;11.890;2023-04-06T21:54:17;1.40;64.60
42145;DHT22;27813;43.516;11.890;2023-04-06T21:58:22;1.40;64.60
42145;DHT22;27813;43.516;11.890;2023-04-06T22:02:26;1.30;64.70
42145;DHT22;27813;43.516;11.890;2023-04-06T22:06:32;1.10;64.90
42145;DHT22;27813;43.516;11.890;2023-04-06T22:10:37;1.00;65.20
42145;DHT22;27813;43.516;11.890;2023-04-06T22:14:44;0.90;65.40
42145;DHT22;27813;43.516;11.890;2023-04-06T22:18:49;0.70;66.00
42145;DHT22;27813;43.516;11.890;2023-04-06T22:22:54;0.70;66.40
42145;DHT22;27813;43.516;11.890;2023-04-06T22:26:58;0.70;66.20
42145;DHT22;27813;43.516;11.890;2023-04-06T22:31:03;0.60;66.20
42145;DHT22;27813;43.516;11.890;2023-04-06T22:35:07;0.50;66.40
42145;DHT22;27813;43.516;11.890;2023-04-06T22:39:12;0.40;66.80
42145;DHT22;27813;43.516;11.890;2023-04-06T22:43:16;0.40;66.80
42145;DHT22;27813;43.516;11.890;2023-04-06T22:47:21;0.40;66.80
42145;DHT22;27813;43.516;11.890;2023-04-06T22:51:25;0.40;66.60
42145;DHT22;27813;43.516;11.890;2023-04-06T22:55:31;0.30;67.00
42145;DHT22;27813;43.516;11.890;2023-04-06T22:59:36;0.30;67.10
42145;DHT22;27813;43.516;11.890;2023-04-06T23:03:40;0.20;67.40
42145;DHT22;27813;43.516;11.890;2023-04-06T23:07:45;0.20;67.70
42145;DHT22;27813;43.516;11.890;2023-04-06T23:11:50;0.10;67.80
42145;DHT22;27813;43.516;11.890;2023-04-06T23:15:54;0.00;68.10
42145;DHT22;27813;43.516;11.890;2023-04-06T23:20:08;0.00;67.90
42145;DHT22;27813;43.516;11.890;2023-04-06T23:24:17;0.00;68.20
42145;DHT22;27813;43.516;11.890;2023-04-06T23:28:22;-3276.70;68.40
